createdAt,value
2023-01-06T00:00:22.833Z,1.99
2023-01-06T00:01:13.048Z,2.12
2023-01-06T00:02:02.518Z,1.98
2023-01-06T00:02:49.109Z,2.01
2023-01-06T00:03:36.965Z,2.07
2023-01-06T00:04:23.598Z,2.06
2023-01-06T00:05:10.430Z,1.76
2023-01-06T00:06:01.461Z,1.85
2023-01-06T00:06:48.292Z,2.31
2023-01-06T00:07:34.925Z,2.17
2023-01-06T00:08:24.327Z,2.36
2023-01-06T00:09:11.016Z,2.49
2023-01-06T00:09:57.627Z,2.37
2023-01-06T00:10:44.185Z,2.77
2023-01-06T00:11:32.229Z,2.70
2023-01-06T00:12:19.184Z,2.48
2023-01-06T00:13:06.013Z,2.91
2023-01-06T00:13:52.893Z,2.93
2023-01-06T00:14:39.458Z,3.34
2023-01-06T00:15:26.092Z,3.36
2023-01-06T00:16:16.031Z,3.30
2023-01-06T00:17:03.307Z,3.84
2023-01-06T00:17:49.982Z,5.04
2023-01-06T00:18:37.202Z,5.49
2023-01-06T00:19:23.815Z,5.85
2023-01-06T00:20:12.177Z,5.71
2023-01-06T00:20:59.587Z,5.83
2023-01-06T00:21:46.150Z,6.02
2023-01-06T00:22:32.746Z,6.00
2023-01-06T00:23:19.268Z,5.94
2023-01-06T00:24:06.085Z,5.70
2023-01-06T00:24:52.626Z,5.98
2023-01-06T00:25:49.147Z,5.42
2023-01-06T00:26:36.936Z,4.80
2023-01-06T00:27:25.932Z,4.84
2023-01-06T00:28:12.527Z,4.67
2023-01-06T00:28:59.213Z,5.02
2023-01-06T00:29:46.056Z,5.04
2023-01-06T00:30:32.769Z,4.66
2023-01-06T00:31:19.466Z,4.07
2023-01-06T00:32:06.372Z,4.03
2023-01-06T00:32:53.032Z,3.36
2023-01-06T00:33:40.605Z,3.27
2023-01-06T00:34:29.573Z,3.47
2023-01-06T00:35:16.110Z,3.06
2023-01-06T00:36:03.770Z,2.60
2023-01-06T00:36:50.426Z,2.69
2023-01-06T00:37:36.972Z,2.75
2023-01-06T00:38:23.522Z,2.56
2023-01-06T00:39:13.173Z,2.37
2023-01-06T00:39:59.660Z,2.54
2023-01-06T00:40:46.200Z,2.35
2023-01-06T00:41:51.448Z,2.44
2023-01-06T00:42:38.017Z,2.44
2023-01-06T00:43:24.737Z,2.84
2023-01-06T00:44:11.308Z,2.68
2023-01-06T00:44:57.752Z,2.50
2023-01-06T00:45:44.298Z,2.35
2023-01-06T00:46:31.830Z,2.33
2023-01-06T00:47:19.518Z,2.21
2023-01-06T00:48:07.624Z,2.27
2023-01-06T00:49:04.618Z,2.24
2023-01-06T00:49:53.615Z,2.74
2023-01-06T00:50:40.183Z,2.25
2023-01-06T00:51:27.148Z,2.67
2023-01-06T00:52:16.991Z,2.52
2023-01-06T00:53:03.758Z,2.44
2023-01-06T00:53:50.337Z,2.44
2023-01-06T00:54:37.244Z,1.95
2023-01-06T00:55:24.003Z,2.17
2023-01-06T00:56:10.701Z,2.34
2023-01-06T00:56:57.637Z,2.09
2023-01-06T00:57:44.296Z,2.09
2023-01-06T00:58:32.577Z,1.98
2023-01-06T00:59:25.318Z,2.02
2023-01-06T01:00:12.167Z,2.00
2023-01-06T01:00:59.752Z,2.26
2023-01-06T01:01:48.237Z,2.32
2023-01-06T01:02:35.892Z,2.52
2023-01-06T01:03:22.498Z,2.12
2023-01-06T01:04:10.333Z,2.48
2023-01-06T01:04:56.889Z,2.60
2023-01-06T01:05:43.614Z,2.77
2023-01-06T01:06:30.140Z,2.56
2023-01-06T01:07:16.935Z,2.46
2023-01-06T01:08:03.455Z,2.40
2023-01-06T01:08:58.431Z,2.72
2023-01-06T01:09:45.086Z,2.58
2023-01-06T01:10:32.839Z,2.84
2023-01-06T01:11:38.464Z,2.96
2023-01-06T01:12:26.523Z,3.58
2023-01-06T01:13:13.119Z,3.16
2023-01-06T01:13:59.698Z,2.99
2023-01-06T01:14:52.151Z,2.96
2023-01-06T01:15:40.295Z,2.99
2023-01-06T01:16:26.967Z,2.84
2023-01-06T01:17:19.141Z,2.96
2023-01-06T01:18:06.470Z,3.23
2023-01-06T01:18:53.213Z,3.04
2023-01-06T01:19:41.103Z,3.07
2023-01-06T01:20:27.751Z,2.92
2023-01-06T01:21:14.411Z,2.62
2023-01-06T01:22:01.360Z,3.00
2023-01-06T01:22:48.472Z,2.84
2023-01-06T01:23:35.107Z,2.91
2023-01-06T01:24:22.676Z,2.83
2023-01-06T01:25:09.663Z,3.19
2023-01-06T01:25:57.334Z,2.68
2023-01-06T01:26:44.644Z,2.96
2023-01-06T01:27:32.178Z,3.02
2023-01-06T01:28:19.024Z,2.90
2023-01-06T01:29:07.286Z,3.04
2023-01-06T01:29:55.725Z,3.17
2023-01-06T01:30:42.629Z,3.12
2023-01-06T01:31:31.090Z,2.99
2023-01-06T01:32:18.453Z,3.57
2023-01-06T01:33:05.037Z,3.19
2023-01-06T01:33:51.641Z,3.24
2023-01-06T01:34:40.384Z,2.88
2023-01-06T01:35:26.952Z,3.07
2023-01-06T01:36:17.595Z,3.37
2023-01-06T01:37:04.281Z,3.16
2023-01-06T01:37:51.056Z,3.39
2023-01-06T01:38:37.794Z,3.52
2023-01-06T01:39:28.078Z,3.29
2023-01-06T01:40:14.852Z,3.51
2023-01-06T01:41:01.965Z,3.19
2023-01-06T01:41:49.364Z,3.39
2023-01-06T01:42:36.009Z,3.70
2023-01-06T01:43:22.641Z,3.28
2023-01-06T01:44:46.449Z,3.23
2023-01-06T01:45:33.447Z,3.53
2023-01-06T01:46:54.616Z,3.67
2023-01-06T01:48:14.157Z,3.65
2023-01-06T01:49:14.722Z,3.62
2023-01-06T01:50:25.241Z,3.59
2023-01-06T01:51:20.348Z,4.19
2023-01-06T01:52:10.597Z,3.62
2023-01-06T01:53:04.789Z,3.97
2023-01-06T01:53:55.412Z,3.88
2023-01-06T01:54:43.899Z,3.92
2023-01-06T01:55:32.861Z,4.18
2023-01-06T01:56:25.920Z,3.93
2023-01-06T01:57:19.043Z,3.69
2023-01-06T01:58:13.654Z,3.98
2023-01-06T01:59:06.067Z,4.06
2023-01-06T01:59:53.692Z,3.95
2023-01-06T02:00:43.527Z,3.86
2023-01-06T02:01:31.888Z,4.08
2023-01-06T02:02:19.994Z,4.28
2023-01-06T02:03:07.615Z,4.54
2023-01-06T02:03:54.629Z,4.55
2023-01-06T02:04:46.537Z,4.32
2023-01-06T02:05:39.364Z,3.81
2023-01-06T02:06:27.479Z,4.09
2023-01-06T02:07:14.034Z,4.85
2023-01-06T02:08:10.086Z,4.91
2023-01-06T02:09:06.732Z,4.44
2023-01-06T02:10:17.941Z,4.29
2023-01-06T02:11:05.816Z,4.93
2023-01-06T02:11:52.468Z,4.65
2023-01-06T02:12:41.037Z,4.18
2023-01-06T02:13:28.544Z,4.00
2023-01-06T02:14:18.951Z,3.81
2023-01-06T02:15:25.695Z,3.73
2023-01-06T02:16:57.571Z,3.77
2023-01-06T02:18:22.178Z,3.99
2023-01-06T02:19:39.724Z,4.50
2023-01-06T02:20:40.624Z,4.35
2023-01-06T02:21:47.702Z,4.32
2023-01-06T02:23:12.530Z,4.27
2023-01-06T02:24:34.185Z,3.56
2023-01-06T02:25:47.376Z,3.77
2023-01-06T02:27:01.751Z,3.87
2023-01-06T02:28:18.511Z,4.03
2023-01-06T02:29:36.948Z,4.04
2023-01-06T02:30:55.901Z,3.93
2023-01-06T02:32:02.208Z,4.11
2023-01-06T02:33:11.578Z,4.15
2023-01-06T02:34:18.221Z,4.28
2023-01-06T02:35:31.980Z,4.51
2023-01-06T02:36:42.671Z,4.50
2023-01-06T02:38:10.412Z,4.36
2023-01-06T02:39:16.643Z,4.26
2023-01-06T02:40:23.351Z,4.22
2023-01-06T02:41:35.635Z,4.38
2023-01-06T02:43:02.877Z,4.46
2023-01-06T02:44:04.331Z,3.90
2023-01-06T02:45:19.856Z,3.91
2023-01-06T02:46:28.926Z,4.45
2023-01-06T02:47:24.064Z,3.93
2023-01-06T02:48:20.597Z,3.84
2023-01-06T02:49:32.545Z,4.12
2023-01-06T02:50:38.194Z,3.85
2023-01-06T02:51:44.935Z,3.98
2023-01-06T02:52:44.723Z,3.90
2023-01-06T02:53:44.389Z,3.98
2023-01-06T02:54:31.585Z,4.30
2023-01-06T02:55:33.749Z,4.17
2023-01-06T02:56:29.028Z,4.33
2023-01-06T02:57:27.537Z,4.19
2023-01-06T02:58:32.170Z,4.27
2023-01-06T02:59:26.922Z,4.00
2023-01-06T03:00:22.853Z,3.89
2023-01-06T03:01:23.555Z,3.89
2023-01-06T03:02:11.680Z,3.58
2023-01-06T03:03:04.412Z,3.41
2023-01-06T03:03:54.006Z,3.28
2023-01-06T03:04:51.049Z,3.41
2023-01-06T03:05:44.251Z,3.42
2023-01-06T03:06:35.499Z,3.82
2023-01-06T03:07:24.165Z,3.43
2023-01-06T03:08:20.579Z,3.22
2023-01-06T03:09:07.362Z,3.49
2023-01-06T03:10:04.136Z,3.49
2023-01-06T03:10:53.931Z,3.78
2023-01-06T03:11:46.798Z,3.59
2023-01-06T03:12:52.705Z,3.73
2023-01-06T03:13:54.093Z,3.45
2023-01-06T03:14:49.276Z,3.60
2023-01-06T03:15:36.366Z,3.81
2023-01-06T03:16:23.303Z,3.31
2023-01-06T03:17:11.626Z,3.50
2023-01-06T03:17:58.206Z,3.44
2023-01-06T03:18:48.487Z,3.48
2023-01-06T03:19:35.277Z,3.64
2023-01-06T03:20:23.915Z,4.01
2023-01-06T03:21:17.702Z,3.78
2023-01-06T03:22:08.702Z,3.59
2023-01-06T03:22:55.159Z,3.90
2023-01-06T03:23:42.792Z,3.62
2023-01-06T03:24:29.577Z,3.60
2023-01-06T03:25:18.377Z,3.64
2023-01-06T03:26:05.204Z,3.83
2023-01-06T03:26:54.076Z,3.56
2023-01-06T03:27:41.777Z,3.52
2023-01-06T03:28:28.804Z,3.38
2023-01-06T03:29:18.736Z,3.51
2023-01-06T03:30:10.450Z,3.63
2023-01-06T03:31:22.738Z,3.45
2023-01-06T03:32:31.855Z,3.35
2023-01-06T03:34:01.230Z,3.70
2023-01-06T03:35:11.389Z,3.30
2023-01-06T03:36:20.235Z,3.02
2023-01-06T03:37:24.915Z,3.18
2023-01-06T03:38:43.800Z,3.18
2023-01-06T03:39:50.843Z,3.06
2023-01-06T03:40:45.599Z,2.86
2023-01-06T03:42:40.420Z,2.77
2023-01-06T03:43:49.190Z,2.08
2023-01-06T03:45:06.567Z,2.10
2023-01-06T03:46:17.673Z,1.96
2023-01-06T03:47:16.218Z,2.00
2023-01-06T03:48:29.727Z,2.08
2023-01-06T03:49:29.918Z,2.05
2023-01-06T03:50:28.903Z,2.15
2023-01-06T03:51:48.379Z,2.21
2023-01-06T03:52:48.502Z,1.91
2023-01-06T03:53:42.271Z,2.04
2023-01-06T03:54:47.545Z,2.15
2023-01-06T03:55:38.271Z,1.70
2023-01-06T03:56:30.723Z,1.84
2023-01-06T03:57:24.602Z,1.86
2023-01-06T03:58:15.085Z,2.01
2023-01-06T03:59:09.541Z,2.27
2023-01-06T04:00:03.496Z,2.08
2023-01-06T04:01:01.137Z,2.06
2023-01-06T04:01:49.807Z,1.82
2023-01-06T04:02:40.414Z,1.88
2023-01-06T04:03:29.776Z,1.69
2023-01-06T04:04:17.483Z,2.11
2023-01-06T04:05:14.390Z,2.26
2023-01-06T04:06:03.252Z,1.86
2023-01-06T04:06:50.401Z,2.13
2023-01-06T04:07:39.057Z,2.25
2023-01-06T04:08:26.482Z,1.80
2023-01-06T04:09:13.214Z,2.01
2023-01-06T04:10:00.908Z,1.94
2023-01-06T04:10:47.695Z,1.96
2023-01-06T04:11:52.723Z,2.05
2023-01-06T04:12:40.429Z,1.77
2023-01-06T04:13:31.299Z,1.77
2023-01-06T04:14:18.161Z,1.69
2023-01-06T04:15:11.252Z,1.79
2023-01-06T04:15:58.308Z,1.93
2023-01-06T04:16:45.050Z,1.69
2023-01-06T04:17:31.532Z,1.60
2023-01-06T04:18:18.040Z,1.64
2023-01-06T04:19:05.022Z,1.58
2023-01-06T04:19:52.265Z,1.84
2023-01-06T04:20:40.102Z,1.63
2023-01-06T04:21:33.062Z,1.42
2023-01-06T04:22:20.131Z,1.53
2023-01-06T04:23:06.780Z,1.70
2023-01-06T04:23:57.637Z,1.35
2023-01-06T04:24:44.984Z,1.40
2023-01-06T04:25:31.651Z,1.44
2023-01-06T04:26:25.291Z,1.40
2023-01-06T04:27:11.783Z,1.44
2023-01-06T04:27:58.368Z,1.68
2023-01-06T04:28:44.879Z,1.64
2023-01-06T04:29:32.135Z,1.60
2023-01-06T04:30:18.878Z,1.41
2023-01-06T04:31:05.428Z,1.14
2023-01-06T04:31:55.451Z,1.36
2023-01-06T04:32:42.101Z,1.55
2023-01-06T04:33:29.277Z,1.46
2023-01-06T04:34:19.920Z,1.38
2023-01-06T04:35:07.166Z,1.29
2023-01-06T04:35:54.141Z,1.30
2023-01-06T04:36:42.260Z,1.43
2023-01-06T04:37:29.386Z,1.37
2023-01-06T04:38:16.034Z,1.51
2023-01-06T04:39:02.739Z,1.51
2023-01-06T04:39:49.402Z,1.40
2023-01-06T04:40:35.924Z,1.33
2023-01-06T04:41:22.505Z,1.34
2023-01-06T04:42:09.202Z,1.38
2023-01-06T04:43:04.318Z,1.40
2023-01-06T04:43:51.006Z,1.39
2023-01-06T04:44:37.511Z,1.33
2023-01-06T04:45:24.092Z,1.44
2023-01-06T04:46:11.550Z,1.34
2023-01-06T04:46:58.090Z,1.39
2023-01-06T04:47:44.594Z,1.42
2023-01-06T04:48:31.189Z,1.22
2023-01-06T04:49:17.647Z,1.31
2023-01-06T04:50:04.585Z,1.52
2023-01-06T04:51:03.599Z,1.23
2023-01-06T04:51:50.189Z,1.05
2023-01-06T04:52:36.947Z,1.19
2023-01-06T04:53:23.406Z,1.02
2023-01-06T04:54:09.867Z,1.06
2023-01-06T04:54:56.305Z,1.11
2023-01-06T04:55:42.807Z,0.96
2023-01-06T04:56:29.520Z,0.96
2023-01-06T04:57:15.928Z,0.99
2023-01-06T04:58:02.600Z,1.09
2023-01-06T04:58:49.356Z,0.85
2023-01-06T04:59:35.887Z,1.04
2023-01-06T05:00:22.496Z,1.17
2023-01-06T05:01:12.987Z,0.96
2023-01-06T05:01:59.791Z,0.94
2023-01-06T05:02:47.094Z,0.94
2023-01-06T05:03:35.332Z,0.89
2023-01-06T05:04:22.081Z,1.03
2023-01-06T05:05:08.925Z,0.96
2023-01-06T05:05:55.442Z,0.80
2023-01-06T05:06:41.990Z,0.91
2023-01-06T05:07:28.609Z,0.91
2023-01-06T05:08:15.039Z,0.96
2023-01-06T05:09:01.861Z,1.00
2023-01-06T05:09:48.361Z,1.06
2023-01-06T05:10:34.946Z,0.93
2023-01-06T05:11:23.852Z,1.07
2023-01-06T05:12:10.311Z,1.13
2023-01-06T05:12:57.303Z,1.14
2023-01-06T05:13:45.385Z,0.95
2023-01-06T05:14:31.946Z,1.02
2023-01-06T05:15:18.358Z,1.16
2023-01-06T05:16:22.358Z,0.99
2023-01-06T05:17:08.883Z,1.02
2023-01-06T05:17:55.316Z,0.98
2023-01-06T05:18:42.243Z,0.97
2023-01-06T05:19:28.876Z,0.95
2023-01-06T05:20:15.395Z,1.01
2023-01-06T05:21:02.188Z,1.26
2023-01-06T05:21:48.646Z,1.23
2023-01-06T05:22:35.379Z,1.10
2023-01-06T05:23:22.000Z,1.22
2023-01-06T05:24:09.755Z,1.06
2023-01-06T05:24:56.183Z,1.08
2023-01-06T05:25:43.361Z,1.10
2023-01-06T05:26:29.881Z,1.08
2023-01-06T05:27:16.327Z,1.15
2023-01-06T05:28:02.997Z,0.99
2023-01-06T05:28:49.878Z,1.03
2023-01-06T05:29:36.573Z,1.06
2023-01-06T05:30:23.149Z,0.98
2023-01-06T05:31:11.347Z,1.02
2023-01-06T05:31:58.231Z,1.11
2023-01-06T05:32:45.063Z,0.95
2023-01-06T05:33:32.757Z,1.14
2023-01-06T05:34:19.248Z,1.02
2023-01-06T05:35:06.215Z,1.02
2023-01-06T05:36:01.257Z,0.83
2023-01-06T05:36:47.757Z,0.91
2023-01-06T05:37:35.808Z,1.04
2023-01-06T05:38:22.433Z,1.13
2023-01-06T05:39:08.918Z,0.96
2023-01-06T05:39:55.409Z,1.03
2023-01-06T05:40:41.886Z,1.02
2023-01-06T05:41:28.341Z,1.07
2023-01-06T05:42:17.522Z,1.24
2023-01-06T05:43:09.896Z,1.40
2023-01-06T05:43:57.506Z,1.64
2023-01-06T05:44:44.131Z,1.44
2023-01-06T05:45:33.631Z,1.20
2023-01-06T05:46:20.230Z,1.19
2023-01-06T05:47:06.845Z,1.14
2023-01-06T05:47:53.301Z,1.20
2023-01-06T05:48:40.632Z,1.26
2023-01-06T05:49:27.100Z,1.13
2023-01-06T05:50:13.957Z,1.07
2023-01-06T05:51:02.215Z,0.95
2023-01-06T05:51:48.926Z,1.10
2023-01-06T05:52:35.383Z,1.00
2023-01-06T05:53:22.088Z,1.15
2023-01-06T05:54:10.345Z,1.11
2023-01-06T05:54:56.808Z,1.03
2023-01-06T05:55:43.290Z,0.92
2023-01-06T05:56:29.921Z,1.16
2023-01-06T05:57:16.561Z,1.16
2023-01-06T05:58:03.248Z,1.14
2023-01-06T05:58:52.227Z,0.98
2023-01-06T05:59:38.694Z,1.01
2023-01-06T06:00:25.446Z,1.02
2023-01-06T06:01:22.161Z,1.19
2023-01-06T06:02:08.855Z,1.06
2023-01-06T06:02:55.962Z,1.06
2023-01-06T06:03:42.591Z,0.97
2023-01-06T06:04:29.568Z,1.04
2023-01-06T06:05:16.091Z,1.23
2023-01-06T06:06:04.503Z,1.08
2023-01-06T06:06:50.944Z,0.96
2023-01-06T06:07:37.842Z,1.04
2023-01-06T06:08:24.271Z,1.15
2023-01-06T06:09:11.013Z,1.06
2023-01-06T06:09:57.479Z,1.13
2023-01-06T06:10:44.018Z,1.32
2023-01-06T06:11:30.787Z,1.40
2023-01-06T06:12:17.219Z,1.42
2023-01-06T06:13:03.916Z,1.82
2023-01-06T06:13:55.703Z,1.79
2023-01-06T06:14:44.837Z,2.20
2023-01-06T06:15:31.281Z,2.14
2023-01-06T06:16:20.929Z,2.11
2023-01-06T06:17:07.415Z,1.83
2023-01-06T06:17:54.641Z,2.14
2023-01-06T06:18:42.955Z,2.16
2023-01-06T06:19:29.627Z,1.99
2023-01-06T06:20:16.563Z,2.05
2023-01-06T06:21:04.301Z,2.13
2023-01-06T06:21:50.969Z,2.16
2023-01-06T06:22:38.554Z,1.96
2023-01-06T06:23:25.177Z,2.03
2023-01-06T06:24:11.754Z,2.12
2023-01-06T06:24:58.426Z,2.04
2023-01-06T06:25:45.063Z,1.72
2023-01-06T06:26:33.768Z,1.46
2023-01-06T06:27:20.437Z,1.31
2023-01-06T06:28:07.008Z,1.43
2023-01-06T06:28:53.708Z,1.18
2023-01-06T06:29:40.255Z,1.13
2023-01-06T06:30:26.794Z,1.37
2023-01-06T06:31:26.007Z,1.14
2023-01-06T06:32:12.571Z,1.12
2023-01-06T06:32:59.239Z,0.98
2023-01-06T06:33:46.193Z,1.11
2023-01-06T06:34:32.643Z,1.07
2023-01-06T06:35:19.072Z,1.19
2023-01-06T06:36:11.790Z,1.39
2023-01-06T06:36:58.406Z,1.26
2023-01-06T06:37:44.836Z,1.23
2023-01-06T06:38:31.406Z,1.08
2023-01-06T06:39:18.363Z,1.50
2023-01-06T06:40:05.468Z,1.47
2023-01-06T06:40:52.088Z,1.21
2023-01-06T06:41:38.811Z,1.16
2023-01-06T06:42:25.241Z,1.22
2023-01-06T06:43:11.694Z,1.12
2023-01-06T06:43:58.363Z,0.90
2023-01-06T06:44:44.969Z,1.19
2023-01-06T06:45:32.072Z,1.03
2023-01-06T06:46:19.711Z,1.07
2023-01-06T06:47:07.343Z,1.00
2023-01-06T06:47:55.190Z,1.09
2023-01-06T06:48:41.732Z,1.15
2023-01-06T06:49:28.426Z,1.19
2023-01-06T06:50:15.174Z,1.11
2023-01-06T06:51:11.106Z,1.11
2023-01-06T06:51:57.582Z,1.14
2023-01-06T06:52:44.318Z,0.87
2023-01-06T06:53:32.123Z,0.97
2023-01-06T06:54:18.623Z,0.98
2023-01-06T06:55:05.652Z,0.88
2023-01-06T06:55:52.209Z,0.97
2023-01-06T06:56:38.671Z,1.12
2023-01-06T06:57:25.213Z,1.08
2023-01-06T06:58:11.705Z,0.96
2023-01-06T06:58:58.277Z,0.94
2023-01-06T06:59:44.837Z,0.93
2023-01-06T07:00:31.299Z,1.05
2023-01-06T07:01:21.166Z,0.96
2023-01-06T07:02:08.973Z,1.10
2023-01-06T07:02:55.702Z,1.00
2023-01-06T07:03:42.945Z,1.18
2023-01-06T07:04:29.605Z,0.94
2023-01-06T07:05:17.675Z,1.08
2023-01-06T07:06:08.639Z,0.95
2023-01-06T07:06:56.738Z,0.84
2023-01-06T07:07:44.703Z,0.70
2023-01-06T07:08:33.222Z,0.93
2023-01-06T07:09:19.850Z,1.03
2023-01-06T07:10:07.652Z,1.04
2023-01-06T07:10:54.260Z,0.85
2023-01-06T07:11:41.289Z,0.89
2023-01-06T07:12:27.886Z,0.79
2023-01-06T07:13:14.499Z,0.96
2023-01-06T07:14:01.222Z,0.91
2023-01-06T07:14:47.934Z,1.17
2023-01-06T07:15:35.260Z,1.00
2023-01-06T07:16:23.171Z,1.08
2023-01-06T07:17:09.877Z,1.00
2023-01-06T07:18:04.081Z,1.09
2023-01-06T07:18:50.679Z,1.07
2023-01-06T07:19:37.311Z,1.06
2023-01-06T07:20:23.933Z,1.04
2023-01-06T07:21:10.679Z,1.09
2023-01-06T07:21:57.161Z,0.91
2023-01-06T07:22:44.814Z,0.97
2023-01-06T07:23:31.689Z,0.76
2023-01-06T07:24:18.491Z,1.12
2023-01-06T07:25:07.455Z,1.09
2023-01-06T07:25:56.052Z,1.00
2023-01-06T07:26:42.761Z,1.16
2023-01-06T07:27:29.526Z,0.89
2023-01-06T07:28:16.498Z,0.96
2023-01-06T07:29:03.549Z,1.01
2023-01-06T07:29:50.277Z,1.11
2023-01-06T07:30:37.214Z,1.14
2023-01-06T07:31:24.623Z,1.10
2023-01-06T07:32:11.177Z,1.15
2023-01-06T07:33:00.841Z,0.96
2023-01-06T07:33:47.583Z,1.17
2023-01-06T07:34:34.239Z,1.27
2023-01-06T07:35:20.826Z,1.09
2023-01-06T07:36:08.190Z,1.02
2023-01-06T07:36:54.647Z,1.09
2023-01-06T07:37:42.442Z,1.04
2023-01-06T07:38:29.601Z,0.97
2023-01-06T07:39:16.173Z,1.12
2023-01-06T07:40:02.774Z,1.01
2023-01-06T07:40:49.548Z,0.98
2023-01-06T07:41:36.729Z,0.97
2023-01-06T07:42:27.279Z,1.03
2023-01-06T07:43:13.876Z,0.96
2023-01-06T07:44:01.642Z,1.02
2023-01-06T07:44:48.215Z,1.01
2023-01-06T07:45:35.052Z,1.14
2023-01-06T07:46:21.570Z,1.01
2023-01-06T07:47:08.235Z,0.88
2023-01-06T07:47:55.914Z,0.99
2023-01-06T07:48:45.094Z,1.02
2023-01-06T07:49:31.735Z,1.10
2023-01-06T07:50:19.428Z,1.10
2023-01-06T07:51:06.973Z,1.11
2023-01-06T07:51:53.914Z,1.12
2023-01-06T07:52:40.848Z,0.89
2023-01-06T07:53:27.702Z,1.09
2023-01-06T07:54:15.429Z,1.08
2023-01-06T07:55:02.417Z,1.22
2023-01-06T07:55:53.808Z,0.96
2023-01-06T07:56:40.393Z,0.93
2023-01-06T07:57:27.721Z,1.29
2023-01-06T07:58:14.702Z,1.06
2023-01-06T07:59:01.307Z,0.83
2023-01-06T07:59:47.827Z,1.17
2023-01-06T08:00:35.380Z,1.00
2023-01-06T08:01:21.972Z,0.87
2023-01-06T08:02:11.515Z,1.04
2023-01-06T08:03:04.928Z,0.88
2023-01-06T08:03:51.898Z,1.03
2023-01-06T08:04:38.433Z,1.08
2023-01-06T08:05:25.138Z,1.13
2023-01-06T08:06:12.849Z,1.12
2023-01-06T08:06:59.321Z,0.96
2023-01-06T08:07:45.883Z,0.91
2023-01-06T08:08:36.197Z,0.99
2023-01-06T08:09:22.789Z,0.91
2023-01-06T08:10:11.896Z,0.86
2023-01-06T08:10:58.759Z,0.92
2023-01-06T08:11:45.616Z,0.84
2023-01-06T08:12:32.407Z,0.88
2023-01-06T08:13:20.413Z,1.05
2023-01-06T08:14:07.294Z,1.07
2023-01-06T08:14:53.877Z,0.95
2023-01-06T08:15:43.759Z,0.81
2023-01-06T08:16:34.559Z,0.76
2023-01-06T08:17:21.019Z,0.92
2023-01-06T08:18:11.602Z,1.22
2023-01-06T08:18:58.178Z,1.04
2023-01-06T08:19:44.932Z,1.04
2023-01-06T08:20:34.114Z,0.96
2023-01-06T08:21:20.827Z,0.95
2023-01-06T08:22:07.614Z,0.99
2023-01-06T08:22:54.173Z,0.90
2023-01-06T08:23:40.998Z,0.96
2023-01-06T08:24:31.704Z,0.78
2023-01-06T08:25:18.676Z,0.86
2023-01-06T08:26:16.360Z,1.16
2023-01-06T08:27:03.147Z,0.97
2023-01-06T08:27:53.103Z,0.79
2023-01-06T08:28:41.160Z,0.84
2023-01-06T08:29:27.786Z,0.85
2023-01-06T08:30:16.546Z,0.79
2023-01-06T08:31:03.671Z,0.70
2023-01-06T08:31:51.605Z,0.74
2023-01-06T08:32:41.210Z,0.82
2023-01-06T08:33:30.537Z,0.82
2023-01-06T08:34:18.045Z,0.80
2023-01-06T08:35:04.952Z,0.90
2023-01-06T08:36:13.136Z,1.03
2023-01-06T08:36:59.723Z,0.82
2023-01-06T08:37:46.398Z,0.72
2023-01-06T08:38:35.471Z,0.81
2023-01-06T08:39:22.011Z,0.74
2023-01-06T08:40:09.057Z,0.77
2023-01-06T08:40:59.271Z,0.98
2023-01-06T08:41:50.210Z,1.07
2023-01-06T08:42:36.827Z,0.78
2023-01-06T08:43:24.591Z,0.69
2023-01-06T08:44:11.191Z,0.73
2023-01-06T08:44:59.886Z,0.76
2023-01-06T08:45:49.358Z,0.87
2023-01-06T08:46:36.048Z,0.81
2023-01-06T08:47:22.991Z,0.81
2023-01-06T08:48:12.267Z,0.96
2023-01-06T08:48:59.373Z,1.07
2023-01-06T08:49:46.196Z,0.89
2023-01-06T08:50:32.945Z,0.81
2023-01-06T08:51:23.584Z,0.78
2023-01-06T08:52:10.336Z,0.87
2023-01-06T08:52:59.745Z,0.74
2023-01-06T08:53:47.448Z,0.81
2023-01-06T08:54:36.677Z,0.87
2023-01-06T08:55:23.322Z,0.75
2023-01-06T08:56:18.557Z,0.88
2023-01-06T08:57:05.418Z,0.79
2023-01-06T08:57:54.750Z,0.90
2023-01-06T08:59:45.837Z,1.79
2023-01-06T09:00:47.855Z,1.44
2023-01-06T09:01:49.796Z,1.08
2023-01-06T09:02:51.534Z,1.11
2023-01-06T09:03:54.287Z,1.12
2023-01-06T09:04:56.147Z,0.78
2023-01-06T09:05:58.558Z,0.79
2023-01-06T09:07:00.198Z,0.67
2023-01-06T09:08:01.907Z,0.97
2023-01-06T09:09:07.005Z,0.73
2023-01-06T09:10:09.616Z,0.93
2023-01-06T09:11:12.637Z,1.08
2023-01-06T09:12:14.902Z,1.17
2023-01-06T09:13:22.779Z,1.57
2023-01-06T09:14:24.397Z,1.16
2023-01-06T09:15:26.022Z,0.96
2023-01-06T09:16:27.772Z,0.90
2023-01-06T09:17:30.523Z,0.92
2023-01-06T09:18:32.039Z,0.93
2023-01-06T09:19:33.828Z,1.06
2023-01-06T09:20:36.624Z,0.73
2023-01-06T09:21:38.529Z,0.89
2023-01-06T09:22:40.131Z,1.11
2023-01-06T09:23:41.649Z,1.06
2023-01-06T09:24:43.228Z,1.23
2023-01-06T09:25:44.816Z,1.31
2023-01-06T09:26:46.301Z,0.97
2023-01-06T09:27:47.795Z,0.96
2023-01-06T09:28:49.385Z,0.85
2023-01-06T09:29:51.023Z,1.20
2023-01-06T09:30:53.300Z,1.10
2023-01-06T09:31:55.236Z,0.89
2023-01-06T09:32:56.964Z,0.86
2023-01-06T09:34:01.563Z,0.72
2023-01-06T09:35:03.371Z,0.88
2023-01-06T09:36:05.928Z,0.82
2023-01-06T09:37:08.674Z,0.65
2023-01-06T09:38:12.877Z,0.69
2023-01-06T09:39:19.484Z,0.95
2023-01-06T09:40:32.767Z,0.64
2023-01-06T09:41:40.746Z,0.93
2023-01-06T09:42:59.753Z,0.61
2023-01-06T09:44:15.179Z,0.78
2023-01-06T09:45:38.021Z,0.81
2023-01-06T09:46:46.618Z,0.71
2023-01-06T09:48:00.731Z,0.72
2023-01-06T09:49:25.260Z,0.75
2023-01-06T09:50:41.445Z,0.87
2023-01-06T09:51:44.535Z,0.88
2023-01-06T09:52:55.395Z,1.12
2023-01-06T09:54:21.733Z,1.59
2023-01-06T09:55:32.462Z,0.87
2023-01-06T09:56:34.151Z,0.64
2023-01-06T09:57:40.904Z,0.68
2023-01-06T09:58:52.856Z,0.98
2023-01-06T10:00:00.226Z,0.91
2023-01-06T10:01:26.802Z,0.82
2023-01-06T10:02:39.941Z,0.49
2023-01-06T10:03:47.523Z,0.72
2023-01-06T10:04:50.040Z,0.80
2023-01-06T10:06:00.740Z,0.77
2023-01-06T10:07:08.539Z,0.85
2023-01-06T10:08:51.544Z,0.80
2023-01-06T10:10:07.992Z,0.61
2023-01-06T10:11:14.749Z,0.70
2023-01-06T10:12:31.816Z,1.42
2023-01-06T10:13:47.791Z,0.81
2023-01-06T10:15:08.428Z,0.73
2023-01-06T10:16:32.163Z,0.55
2023-01-06T10:18:04.710Z,0.57
2023-01-06T10:19:26.048Z,0.64
2023-01-06T10:20:50.953Z,0.80
2023-01-06T10:22:31.787Z,0.83
2023-01-06T10:24:21.061Z,0.72
2023-01-06T10:25:34.107Z,0.91
2023-01-06T10:26:45.007Z,0.82
2023-01-06T10:27:58.863Z,0.88
2023-01-06T10:29:12.860Z,0.78
2023-01-06T10:30:33.740Z,0.65
2023-01-06T10:31:42.974Z,0.56
2023-01-06T10:32:49.302Z,0.45
2023-01-06T10:33:55.096Z,0.88
2023-01-06T10:34:58.405Z,1.12
2023-01-06T10:36:00.727Z,0.79
2023-01-06T10:37:21.336Z,0.69
2023-01-06T10:38:31.560Z,0.93
2023-01-06T10:41:10.870Z,0.71
2023-01-06T10:42:47.943Z,0.83
2023-01-06T10:43:49.545Z,0.69
2023-01-06T10:44:51.145Z,0.88
2023-01-06T10:45:54.036Z,0.83
2023-01-06T10:46:55.514Z,0.74
2023-01-06T10:47:59.132Z,0.77
2023-01-06T10:49:03.020Z,0.66
2023-01-06T10:50:05.596Z,0.89
2023-01-06T10:51:37.415Z,0.91
2023-01-06T10:52:39.048Z,0.72
2023-01-06T10:53:40.965Z,0.91
2023-01-06T10:54:44.079Z,0.75
2023-01-06T10:55:54.369Z,0.84
2023-01-06T10:57:03.913Z,0.82
2023-01-06T10:58:26.945Z,0.64
2023-01-06T10:59:29.161Z,0.59
2023-01-06T11:00:32.358Z,0.58
2023-01-06T11:01:35.042Z,0.75
2023-01-06T11:02:36.724Z,0.74
2023-01-06T11:03:42.671Z,0.88
2023-01-06T11:04:51.883Z,0.95
2023-01-06T11:06:08.173Z,0.87
2023-01-06T11:07:14.903Z,0.77
2023-01-06T11:08:17.300Z,0.62
2023-01-06T11:32:41.977Z,1.83
2023-01-06T11:34:01.952Z,1.01
2023-01-06T11:35:20.587Z,0.90
2023-01-06T11:36:28.438Z,1.02
2023-01-06T11:38:02.409Z,1.19
2023-01-06T11:39:17.965Z,1.84
2023-01-06T11:40:41.467Z,1.52
2023-01-06T11:41:50.012Z,1.50
2023-01-06T11:43:08.898Z,1.02
2023-01-06T11:44:31.792Z,0.74
2023-01-06T11:45:45.798Z,1.09
2023-01-06T11:47:06.166Z,1.08
2023-01-06T11:51:14.080Z,1.80
2023-01-06T11:52:54.437Z,1.44
2023-01-06T11:54:01.872Z,1.61
2023-01-06T11:55:09.389Z,1.45
2023-01-06T11:56:15.654Z,1.42
2023-01-06T11:57:26.240Z,1.30
2023-01-06T11:59:21.504Z,1.17
2023-01-06T12:02:37.605Z,1.39
2023-01-06T12:04:04.767Z,1.01
2023-01-06T12:07:49.892Z,1.00
2023-01-06T12:09:35.684Z,1.07
2023-01-06T12:10:44.091Z,1.11
2023-01-06T12:12:07.537Z,1.23
2023-01-06T12:17:35.110Z,0.80
2023-01-06T12:24:02.815Z,0.63
2023-01-06T12:25:33.347Z,0.61
2023-01-06T12:31:48.775Z,0.53
2023-01-06T12:33:08.007Z,0.72
2023-01-06T12:37:54.939Z,0.62
2023-01-06T12:39:02.897Z,0.59
2023-01-06T12:40:37.104Z,0.65
2023-01-06T12:41:55.624Z,0.61
2023-01-06T12:43:18.350Z,0.70
2023-01-06T12:44:22.689Z,0.85
2023-01-06T12:45:56.636Z,0.92
2023-01-06T13:13:50.729Z,2.32
2023-01-06T13:15:23.814Z,1.36
2023-01-06T13:16:38.637Z,1.24
2023-01-06T13:18:21.219Z,1.21
2023-01-06T13:19:43.427Z,1.44
2023-01-06T13:21:10.796Z,1.49
2023-01-06T13:22:31.577Z,1.73
2023-01-06T13:37:51.380Z,1.52
2023-01-06T13:39:19.701Z,1.14
2023-01-06T13:40:38.973Z,1.18
2023-01-06T13:41:57.791Z,1.76